createdAt,value
2022-12-08T00:01:55.391Z,101486.03
2022-12-08T00:04:58.860Z,101471.31
2022-12-08T00:08:08.297Z,101487.19
2022-12-08T00:10:57.923Z,101484.72
2022-12-08T00:13:48.266Z,101469.97
2022-12-08T00:16:38.967Z,101463.91
2022-12-08T00:19:29.625Z,101469.66
2022-12-08T00:22:18.991Z,101473.44
2022-12-08T00:25:09.290Z,101460.59
2022-12-08T00:27:58.667Z,101462.50
2022-12-08T00:30:48.340Z,101460.50
2022-12-08T00:33:39.562Z,101457.91
2022-12-08T00:36:29.645Z,101452.47
2022-12-08T00:39:19.531Z,101458.94
2022-12-08T00:42:15.532Z,101456.75
2022-12-08T00:45:05.355Z,101452.31
2022-12-08T00:47:54.665Z,101443.94
2022-12-08T00:50:45.317Z,101437.09
2022-12-08T00:53:34.803Z,101435.38
2022-12-08T00:56:24.231Z,101428.75
2022-12-08T00:59:13.729Z,101417.59
2022-12-08T01:02:06.078Z,101425.78
2022-12-08T01:04:55.403Z,101424.34
2022-12-08T01:07:46.103Z,101421.88
2022-12-08T01:10:37.299Z,101417.75
2022-12-08T01:13:26.802Z,101416.63
2022-12-08T01:16:23.235Z,101417.09
2022-12-08T01:19:14.703Z,101412.22
2022-12-08T01:22:04.001Z,101409.66
2022-12-08T01:24:54.782Z,101392.56
2022-12-08T01:27:44.171Z,101397.97
2022-12-08T01:30:33.678Z,101395.28
2022-12-08T01:33:23.027Z,101397.22
2022-12-08T01:36:22.513Z,101392.47
2022-12-08T01:39:18.357Z,101389.91
2022-12-08T01:42:22.373Z,101394.69
2022-12-08T01:45:22.679Z,101380.09
2022-12-08T01:48:18.019Z,101383.28
2022-12-08T01:51:08.158Z,101377.88
2022-12-08T01:53:57.734Z,101358.00
2022-12-08T01:56:56.918Z,101372.47
2022-12-08T01:59:55.369Z,101367.34
2022-12-08T02:02:54.921Z,101358.56
2022-12-08T02:05:45.224Z,101371.25
2022-12-08T02:08:36.366Z,101362.50
2022-12-08T02:11:25.670Z,101371.44
2022-12-08T02:14:16.038Z,101368.47
2022-12-08T02:17:17.489Z,101362.75
2022-12-08T02:20:41.694Z,101359.72
2022-12-08T02:23:43.347Z,101364.28
2022-12-08T02:27:32.486Z,101367.50
2022-12-08T02:30:26.123Z,101359.53
2022-12-08T02:34:00.030Z,101358.97
2022-12-08T02:37:00.799Z,101357.34
2022-12-08T02:40:01.444Z,101354.56
2022-12-08T02:42:59.737Z,101350.94
2022-12-08T02:45:55.420Z,101356.94
2022-12-08T02:48:46.515Z,101349.66
2022-12-08T02:51:35.877Z,101346.94
2022-12-08T02:54:25.268Z,101336.03
2022-12-08T02:57:33.300Z,101336.53
2022-12-08T03:00:26.359Z,101338.09
2022-12-08T03:03:25.380Z,101335.63
2022-12-08T03:06:30.796Z,101312.53
2022-12-08T03:09:30.405Z,101313.03
2022-12-08T03:12:27.992Z,101312.97
2022-12-08T03:15:21.710Z,101316.81
2022-12-08T03:18:15.463Z,101309.53
2022-12-08T03:21:07.514Z,101307.41
2022-12-08T03:23:58.946Z,101308.53
2022-12-08T03:26:53.356Z,101297.16
2022-12-08T03:29:42.881Z,101283.66
2022-12-08T03:32:38.922Z,101298.56
2022-12-08T03:35:32.400Z,101294.22
2022-12-08T03:38:21.795Z,101287.00
2022-12-08T03:41:22.109Z,101281.53
2022-12-08T03:44:11.446Z,101281.88
2022-12-08T03:47:00.788Z,101267.13
2022-12-08T03:49:50.121Z,101263.84
2022-12-08T03:52:39.518Z,101267.69
2022-12-08T03:55:28.863Z,101257.63
2022-12-08T03:58:19.546Z,101261.22
2022-12-08T04:01:08.983Z,101253.44
2022-12-08T04:03:58.388Z,101247.28
2022-12-08T04:06:47.669Z,101239.56
2022-12-08T04:09:37.002Z,101238.06
2022-12-08T04:12:26.360Z,101251.34
2022-12-08T04:15:17.340Z,101251.00
2022-12-08T04:18:07.155Z,101238.41
2022-12-08T04:20:56.472Z,101234.88
2022-12-08T04:23:46.587Z,101226.78
2022-12-08T04:26:35.975Z,101217.47
2022-12-08T04:29:25.280Z,101220.22
2022-12-08T04:32:15.972Z,101218.91
2022-12-08T04:35:05.784Z,101217.59
2022-12-08T04:37:55.132Z,101204.88
2022-12-08T04:40:44.735Z,101208.75
2022-12-08T04:43:34.376Z,101214.69
2022-12-08T04:46:23.682Z,101210.81
2022-12-08T04:49:14.419Z,101209.28
2022-12-08T04:52:03.699Z,101199.19
2022-12-08T04:54:53.028Z,101207.59
2022-12-08T04:57:42.373Z,101196.47
2022-12-08T05:00:31.627Z,101184.78
2022-12-08T05:03:26.864Z,101214.16
2022-12-08T05:06:19.266Z,101203.81
2022-12-08T05:09:08.683Z,101205.22
2022-12-08T05:11:58.025Z,101192.53
2022-12-08T05:14:48.935Z,101188.13
2022-12-08T05:17:38.203Z,101189.47
2022-12-08T05:20:29.343Z,101188.13
2022-12-08T05:23:20.092Z,101191.63
2022-12-08T05:26:09.459Z,101185.97
2022-12-08T05:28:59.036Z,101170.81
2022-12-08T05:31:48.435Z,101170.25
2022-12-08T05:34:38.061Z,101161.00
2022-12-08T05:37:27.688Z,101156.97
2022-12-08T05:40:18.633Z,101149.19
2022-12-08T05:43:08.247Z,101152.78
2022-12-08T05:45:57.789Z,101160.63
2022-12-08T05:48:47.123Z,101156.31
2022-12-08T05:51:36.464Z,101154.69
2022-12-08T05:54:25.735Z,101153.09
2022-12-08T05:57:16.410Z,101164.16
2022-12-08T06:00:07.618Z,101156.66
2022-12-08T06:03:01.593Z,101151.56
2022-12-08T06:05:51.032Z,101146.59
2022-12-08T06:08:40.306Z,101153.44
2022-12-08T06:11:32.206Z,101145.06
2022-12-08T06:14:23.010Z,101138.38
2022-12-08T06:17:12.333Z,101136.22
2022-12-08T06:20:02.030Z,101148.97
2022-12-08T06:22:51.986Z,101148.41
2022-12-08T06:25:41.248Z,101147.91
2022-12-08T06:28:31.556Z,101144.41
2022-12-08T06:31:25.801Z,101144.06
2022-12-08T06:34:15.177Z,101149.53
2022-12-08T06:37:04.496Z,101149.28
2022-12-08T06:39:53.885Z,101141.38
2022-12-08T06:42:45.128Z,101134.41
2022-12-08T06:45:34.445Z,101131.63
2022-12-08T06:48:25.341Z,101135.69
2022-12-08T06:51:17.145Z,101131.00
2022-12-08T06:54:06.718Z,101138.84
2022-12-08T06:56:56.037Z,101134.78
2022-12-08T06:59:45.909Z,101125.59
2022-12-08T07:02:35.311Z,101128.31
2022-12-08T07:05:26.156Z,101123.25
2022-12-08T07:08:15.903Z,101120.88
2022-12-08T07:11:09.675Z,101113.25
2022-12-08T07:13:59.160Z,101124.59
2022-12-08T07:16:48.798Z,101110.44
2022-12-08T07:19:38.317Z,101110.16
2022-12-08T07:22:29.306Z,101116.66
2022-12-08T07:25:19.000Z,101101.00
2022-12-08T07:28:12.602Z,101104.28
2022-12-08T07:31:02.063Z,101096.72
2022-12-08T07:33:51.783Z,101097.53
2022-12-08T07:36:41.481Z,101087.75
2022-12-08T07:39:32.566Z,101095.91
2022-12-08T07:42:22.068Z,101100.00
2022-12-08T07:45:12.512Z,101088.28
2022-12-08T07:48:01.789Z,101105.19
2022-12-08T07:50:51.187Z,101106.47
2022-12-08T07:53:42.806Z,101100.25
2022-12-08T07:56:34.959Z,101095.41
2022-12-08T07:59:24.568Z,101096.22
2022-12-08T08:02:24.675Z,101093.25
2022-12-08T08:05:15.528Z,101090.31
2022-12-08T08:08:05.317Z,101093.22
2022-12-08T08:10:54.754Z,101092.06
2022-12-08T08:13:46.947Z,101087.69
2022-12-08T08:16:38.591Z,101087.09
2022-12-08T08:19:29.881Z,101092.72
2022-12-08T08:22:19.166Z,101094.06
2022-12-08T08:25:10.773Z,101090.28
2022-12-08T08:28:00.191Z,101087.84
2022-12-08T08:30:51.290Z,101087.03
2022-12-08T08:33:40.683Z,101084.00
2022-12-08T08:36:30.081Z,101099.66
2022-12-08T08:39:20.905Z,101092.06
2022-12-08T08:42:11.419Z,101103.63
2022-12-08T08:45:00.956Z,101099.63
2022-12-08T08:47:51.830Z,101098.28
2022-12-08T08:50:42.017Z,101099.38
2022-12-08T08:53:31.369Z,101096.91
2022-12-08T08:56:21.549Z,101100.72
2022-12-08T08:59:12.487Z,101094.59
2022-12-08T09:02:01.856Z,101098.66
2022-12-08T09:04:52.985Z,101092.25
2022-12-08T09:07:42.413Z,101094.69
2022-12-08T09:10:31.760Z,101091.44
2022-12-08T09:13:22.449Z,101084.69
2022-12-08T09:16:13.774Z,101090.09
2022-12-08T09:19:03.040Z,101076.28
2022-12-08T09:21:55.261Z,101076.78
2022-12-08T09:24:44.983Z,101088.13
2022-12-08T09:27:34.282Z,101086.56
2022-12-08T09:30:23.892Z,101081.78
2022-12-08T09:33:14.182Z,101087.22
2022-12-08T09:36:05.112Z,101088.09
2022-12-08T09:38:58.160Z,101087.16
2022-12-08T09:41:52.136Z,101091.22
2022-12-08T09:44:51.942Z,101094.09
2022-12-08T09:47:47.403Z,101089.63
2022-12-08T09:50:42.452Z,101085.59
2022-12-08T09:53:38.233Z,101091.03
2022-12-08T09:56:35.836Z,101096.28
2022-12-08T09:59:30.961Z,101090.06
2022-12-08T10:02:24.850Z,101081.91
2022-12-08T10:05:16.491Z,101083.88
2022-12-08T10:08:14.128Z,101079.28
2022-12-08T10:11:12.564Z,101076.50
2022-12-08T10:14:20.244Z,101075.75
2022-12-08T10:17:21.517Z,101066.81
2022-12-08T10:20:19.282Z,101062.00
2022-12-08T10:23:24.403Z,101056.84
2022-12-08T10:26:17.184Z,101060.69
2022-12-08T10:29:13.916Z,101064.47
2022-12-08T10:32:18.339Z,101063.72
2022-12-08T10:35:11.091Z,101052.06
2022-12-08T10:38:02.932Z,101057.78
2022-12-08T10:40:55.874Z,101064.38
2022-12-08T10:43:48.855Z,101053.84
2022-12-08T10:46:40.103Z,101052.81
2022-12-08T10:49:33.657Z,101050.38
2022-12-08T10:52:25.479Z,101066.69
2022-12-08T10:55:20.822Z,101059.06
2022-12-08T10:58:30.909Z,101053.66
2022-12-08T11:01:25.046Z,101048.53
2022-12-08T11:04:20.544Z,101051.50
2022-12-08T11:07:11.897Z,101045.53
2022-12-08T11:10:01.435Z,101038.75
2022-12-08T11:12:51.757Z,101038.47
2022-12-08T11:15:42.338Z,101033.59
2022-12-08T11:18:41.505Z,101036.84
2022-12-08T11:21:39.148Z,101037.66
2022-12-08T11:24:36.027Z,101039.09
2022-12-08T11:27:27.048Z,101040.16
2022-12-08T11:30:20.073Z,101024.44
2022-12-08T11:33:16.318Z,101032.03
2022-12-08T11:36:11.189Z,101020.94
2022-12-08T11:39:06.079Z,101033.97
2022-12-08T11:41:58.326Z,101040.75
2022-12-08T11:44:55.764Z,101026.88
2022-12-08T11:47:55.981Z,101011.94
2022-12-08T11:50:51.668Z,101015.22
2022-12-08T11:53:51.629Z,101017.63
2022-12-08T11:56:46.738Z,101005.66
2022-12-08T11:59:41.903Z,100990.38
2022-12-08T12:02:34.665Z,101002.38
2022-12-08T12:08:57.890Z,100986.72
2022-12-08T12:12:16.852Z,100996.53
2022-12-08T12:15:38.059Z,100988.66
2022-12-08T12:18:33.221Z,100991.81
2022-12-08T12:21:27.741Z,100982.91
2022-12-08T12:24:26.755Z,100988.16
2022-12-08T12:27:29.338Z,100985.84
2022-12-08T12:30:25.497Z,100978.91
2022-12-08T12:33:18.285Z,100974.34
2022-12-08T12:36:11.088Z,100976.59
2022-12-08T12:39:03.336Z,100973.06
2022-12-08T12:41:56.025Z,100980.97
2022-12-08T12:44:46.683Z,100979.38
2022-12-08T12:47:55.830Z,100981.03
2022-12-08T12:50:47.908Z,100976.97
2022-12-08T12:53:52.314Z,100972.91
2022-12-08T12:56:56.732Z,100960.44
2022-12-08T13:00:07.780Z,100978.00
2022-12-08T13:02:59.795Z,100970.69
2022-12-08T13:05:53.524Z,100972.28
2022-12-08T13:08:52.575Z,100969.88
2022-12-08T13:11:52.955Z,100971.78
2022-12-08T13:14:51.844Z,100962.81
2022-12-08T13:17:48.534Z,100961.19
2022-12-08T13:20:47.428Z,100966.63
2022-12-08T13:23:49.323Z,100956.59
2022-12-08T13:26:46.189Z,100950.06
2022-12-08T13:29:37.462Z,100944.63
2022-12-08T13:36:23.945Z,100946.78
2022-12-08T13:39:22.986Z,100940.28
2022-12-08T13:42:25.035Z,100933.25
2022-12-08T13:58:29.536Z,100920.78
2022-12-08T14:01:22.874Z,100927.81
2022-12-08T14:04:42.477Z,100925.41
2022-12-08T14:07:28.802Z,100919.94
2022-12-08T14:10:23.417Z,100926.19
2022-12-08T14:13:15.185Z,100924.03
2022-12-08T14:16:04.574Z,100906.72
2022-12-08T14:18:54.001Z,100909.69
2022-12-08T14:21:49.725Z,100904.53
2022-12-08T14:24:39.127Z,100902.34
2022-12-08T14:27:33.753Z,100900.97
2022-12-08T14:30:27.377Z,100897.75
2022-12-08T14:33:18.094Z,100901.28
2022-12-08T14:36:10.546Z,100904.78
2022-12-08T14:39:01.362Z,100893.66
2022-12-08T14:42:02.235Z,100895.31
2022-12-08T14:45:07.079Z,100893.41
2022-12-08T14:47:56.442Z,100892.84
2022-12-08T14:50:57.180Z,100895.56
2022-12-08T14:53:53.273Z,100888.78
2022-12-08T14:56:51.936Z,100896.38
2022-12-08T14:59:44.325Z,100894.75
2022-12-08T15:02:34.553Z,100893.66
2022-12-08T15:05:28.194Z,100889.59
2022-12-08T15:08:17.732Z,100881.19
2022-12-08T15:11:34.898Z,100875.75
2022-12-08T15:14:34.050Z,100898.50
2022-12-08T15:17:35.817Z,100897.44
2022-12-08T15:20:35.857Z,100888.44
2022-12-08T15:23:31.543Z,100893.06
2022-12-08T15:26:24.446Z,100888.19
2022-12-08T15:29:20.617Z,100897.38
2022-12-08T15:32:16.091Z,100889.78
2022-12-08T15:35:05.946Z,100886.78
2022-12-08T15:37:55.425Z,100886.50
2022-12-08T15:40:44.772Z,100885.41
2022-12-08T15:43:34.441Z,100880.53
2022-12-08T15:46:23.783Z,100884.56
2022-12-08T15:49:19.838Z,100884.81
2022-12-08T15:52:16.194Z,100890.75
2022-12-08T15:55:06.416Z,100890.72
2022-12-08T16:01:06.670Z,100881.75
2022-12-08T16:07:21.456Z,100882.53
2022-12-08T16:10:18.560Z,100895.25
2022-12-08T16:16:43.516Z,100887.34
2022-12-08T16:19:32.860Z,100888.41
2022-12-08T16:26:00.554Z,100893.78
2022-12-08T16:28:54.070Z,100894.00
2022-12-08T16:31:44.200Z,100893.94
2022-12-08T16:34:33.750Z,100888.22
2022-12-08T16:37:27.613Z,100894.41
2022-12-08T16:40:17.285Z,100888.16
2022-12-08T16:43:05.525Z,100886.47
2022-12-08T16:45:55.116Z,100899.97
2022-12-08T16:48:44.858Z,100895.84
2022-12-08T16:51:34.246Z,100878.78
2022-12-08T16:54:25.087Z,100886.94
2022-12-08T16:57:14.889Z,100885.88
2022-12-08T17:00:06.278Z,100852.16
2022-12-08T17:02:56.383Z,100888.78
2022-12-08T17:05:45.993Z,100887.16
2022-12-08T17:08:35.316Z,100894.72
2022-12-08T17:11:30.132Z,100890.31
2022-12-08T17:14:19.956Z,100879.72
2022-12-08T17:17:09.548Z,100887.28
2022-12-08T17:19:58.855Z,100889.91
2022-12-08T17:22:48.721Z,100886.63
2022-12-08T17:25:38.083Z,100883.91
2022-12-08T17:28:51.885Z,100880.09
2022-12-08T17:31:38.719Z,100884.38
2022-12-08T17:34:28.796Z,100868.91
2022-12-08T17:37:18.903Z,100887.59
2022-12-08T17:40:10.236Z,100886.53
2022-12-08T17:42:59.533Z,100884.34
2022-12-08T17:45:50.958Z,100896.72
2022-12-08T17:48:40.277Z,100893.94
2022-12-08T17:51:29.805Z,100890.13
2022-12-08T17:54:20.312Z,100889.59
2022-12-08T17:57:09.990Z,100895.22
2022-12-08T17:59:59.468Z,100894.91
2022-12-08T18:02:50.460Z,100889.50
2022-12-08T18:05:39.789Z,100896.50
2022-12-08T18:08:29.215Z,100897.81
2022-12-08T18:11:20.991Z,100896.69
2022-12-08T18:14:10.970Z,100897.75
2022-12-08T18:17:00.438Z,100896.38
2022-12-08T18:19:51.475Z,100893.38
2022-12-08T18:22:41.876Z,100896.31
2022-12-08T18:25:31.233Z,100891.97
2022-12-08T18:28:20.522Z,100890.94
2022-12-08T18:31:11.465Z,100897.25
2022-12-08T18:34:00.743Z,100888.69
2022-12-08T18:36:51.417Z,100892.75
2022-12-08T18:39:41.057Z,100887.03
2022-12-08T18:42:30.707Z,100883.22
2022-12-08T18:45:22.683Z,100877.75
2022-12-08T18:48:12.530Z,100880.94
2022-12-08T18:53:53.685Z,100882.31
2022-12-08T18:56:43.123Z,100882.03
2022-12-08T18:59:32.626Z,100821.03
2022-12-08T19:02:22.275Z,100882.19
2022-12-08T19:05:14.210Z,100882.13
2022-12-08T19:08:03.776Z,100880.75
2022-12-08T19:10:54.552Z,100885.78
2022-12-08T19:13:43.888Z,100889.84
2022-12-08T19:16:33.313Z,100891.97
2022-12-08T19:19:22.735Z,100888.38
2022-12-08T19:22:12.384Z,100888.63
2022-12-08T19:25:01.742Z,100880.81
2022-12-08T19:27:52.492Z,100886.88
2022-12-08T19:30:41.919Z,100886.44
2022-12-08T19:33:31.391Z,100884.81
2022-12-08T19:36:23.539Z,100882.84
2022-12-08T19:39:36.975Z,100887.75
2022-12-08T19:42:43.888Z,100889.63
2022-12-08T19:45:37.706Z,100881.50
2022-12-08T19:48:27.457Z,100873.88
2022-12-08T19:51:16.791Z,100874.47
2022-12-08T19:54:06.354Z,100874.94
2022-12-08T19:56:55.633Z,100881.00
2022-12-08T19:59:45.128Z,100874.25
2022-12-08T20:02:36.668Z,100874.25
2022-12-08T20:05:26.374Z,100878.00
2022-12-08T20:08:16.165Z,100869.53
2022-12-08T20:11:05.867Z,100882.16
2022-12-08T20:13:55.257Z,100886.72
2022-12-08T20:16:44.682Z,100886.50
2022-12-08T20:19:35.413Z,100883.00
2022-12-08T20:22:24.858Z,100876.72
2022-12-08T20:25:15.016Z,100873.75
2022-12-08T20:28:04.901Z,100866.75
2022-12-08T20:30:54.322Z,100872.38
2022-12-08T20:33:43.847Z,100868.38
2022-12-08T20:36:34.614Z,100864.31
2022-12-08T20:39:24.024Z,100869.91
2022-12-08T20:42:14.854Z,100877.78
2022-12-08T20:45:06.647Z,100896.69
2022-12-08T20:47:56.254Z,100888.31
2022-12-08T20:50:45.897Z,100891.31
2022-12-08T20:53:36.871Z,100888.63
2022-12-08T20:56:27.418Z,100897.91
2022-12-08T20:59:18.369Z,100896.13
2022-12-08T21:02:08.119Z,100884.75
2022-12-08T21:04:57.687Z,100898.19
2022-12-08T21:07:47.736Z,100896.94
2022-12-08T21:10:43.666Z,100901.00
2022-12-08T21:13:33.891Z,100901.25
2022-12-08T21:16:23.398Z,100910.81
2022-12-08T21:19:13.669Z,100895.06
2022-12-08T21:22:03.427Z,100904.50
2022-12-08T21:24:53.265Z,100907.84
2022-12-08T21:27:44.053Z,100907.03
2022-12-08T21:30:33.453Z,100904.09
2022-12-08T21:33:23.276Z,100908.47
2022-12-08T21:36:15.573Z,100900.13
2022-12-08T21:39:11.303Z,100905.88
2022-12-08T21:42:21.484Z,100913.25
2022-12-08T21:45:16.320Z,100902.28
2022-12-08T21:48:11.493Z,100908.03
2022-12-08T21:51:06.626Z,100908.84
2022-12-08T21:53:56.344Z,100902.91
2022-12-08T21:56:46.321Z,100902.56
2022-12-08T21:59:35.987Z,100907.50
2022-12-08T22:02:26.906Z,100912.13
2022-12-08T22:05:18.425Z,100916.75
2022-12-08T22:08:08.183Z,100912.44
2022-12-08T22:10:57.636Z,100915.41
2022-12-08T22:13:47.042Z,100902.38
2022-12-08T22:16:36.572Z,100905.88
2022-12-08T22:19:27.798Z,100896.63
2022-12-08T22:22:17.309Z,100890.41
2022-12-08T22:25:11.065Z,100885.19
2022-12-08T22:28:00.438Z,100883.56
2022-12-08T22:30:49.940Z,100880.31
2022-12-08T22:33:40.312Z,100891.94
2022-12-08T22:36:31.031Z,100890.84
2022-12-08T22:39:20.561Z,100896.06
2022-12-08T22:42:10.003Z,100890.97
2022-12-08T22:44:59.415Z,100897.50
2022-12-08T22:47:48.703Z,100897.25
2022-12-08T22:50:38.271Z,100904.59
2022-12-08T22:53:29.338Z,100896.25
2022-12-08T22:56:19.952Z,100881.59
2022-12-08T22:59:09.276Z,100882.69
2022-12-08T23:01:58.575Z,100894.03
2022-12-08T23:04:48.670Z,100893.53
2022-12-08T23:07:38.469Z,100895.19
2022-12-08T23:10:29.926Z,100890.03
2022-12-08T23:13:20.162Z,100887.06
2022-12-08T23:16:10.971Z,100878.91
2022-12-08T23:19:00.979Z,100880.50
2022-12-08T23:21:50.430Z,100895.91
2022-12-08T23:24:40.006Z,100878.91
2022-12-08T23:27:30.836Z,100856.47
2022-12-08T23:30:20.368Z,100858.09
2022-12-08T23:33:09.932Z,100852.44
2022-12-08T23:35:59.683Z,100853.78
2022-12-08T23:38:49.217Z,100874.66
2022-12-08T23:41:38.709Z,100874.94
2022-12-08T23:44:29.615Z,100873.06
2022-12-08T23:47:19.265Z,100873.88
2022-12-08T23:50:10.872Z,100877.66
2022-12-08T23:53:00.704Z,100866.09
2022-12-08T23:55:50.251Z,100851.72
2022-12-08T23:58:40.602Z,100860.09
